createdAt,value
2022-12-01T00:00:55.453Z,13.88
2022-12-01T00:04:58.458Z,14.02
2022-12-01T00:09:20.624Z,14.43
2022-12-01T00:13:23.681Z,13.00
2022-12-01T00:17:26.665Z,14.00
2022-12-01T00:21:29.924Z,14.10
2022-12-01T00:25:34.546Z,14.00
2022-12-01T00:29:37.470Z,14.47
2022-12-01T00:33:41.137Z,13.25
2022-12-01T00:37:44.761Z,13.60
2022-12-01T00:41:49.150Z,14.85
2022-12-01T00:45:52.428Z,13.70
2022-12-01T00:49:57.152Z,13.63
2022-12-01T00:54:00.256Z,13.60
2022-12-01T00:58:04.769Z,14.63
2022-12-01T01:02:09.403Z,13.27
2022-12-01T01:06:14.065Z,13.20
2022-12-01T01:10:17.164Z,13.87
2022-12-01T01:14:22.558Z,13.90
2022-12-01T01:18:25.884Z,13.63
2022-12-01T01:22:28.929Z,14.03
2022-12-01T01:26:33.185Z,14.88
2022-12-01T01:30:40.430Z,13.87
2022-12-01T01:34:43.737Z,13.63
2022-12-01T01:38:47.701Z,14.20
2022-12-01T01:42:51.005Z,13.53
2022-12-01T01:46:55.495Z,13.83
2022-12-01T01:50:58.866Z,13.88
2022-12-01T01:55:02.093Z,13.88
2022-12-01T01:59:05.539Z,13.52
2022-12-01T02:03:13.234Z,15.20
2022-12-01T02:07:19.412Z,14.43
2022-12-01T02:11:49.543Z,13.88
2022-12-01T02:16:03.718Z,14.23
2022-12-01T02:20:37.601Z,14.48
2022-12-01T02:25:09.681Z,15.00
2022-12-01T02:29:44.134Z,14.20
2022-12-01T02:33:54.455Z,15.40
2022-12-01T02:38:09.089Z,13.93
2022-12-01T02:42:38.908Z,13.93
2022-12-01T02:46:46.975Z,14.13
2022-12-01T02:50:53.339Z,13.13
2022-12-01T02:54:57.948Z,14.00
2022-12-01T02:59:01.219Z,13.00
2022-12-01T03:03:25.271Z,13.73
2022-12-01T03:07:44.789Z,13.60
2022-12-01T03:11:54.714Z,14.18
2022-12-01T03:16:02.211Z,12.93
2022-12-01T03:20:11.844Z,13.17
2022-12-01T03:24:18.419Z,13.95
2022-12-01T03:28:29.656Z,13.68
2022-12-01T03:32:36.500Z,15.05
2022-12-01T03:36:43.381Z,13.32
2022-12-01T03:40:50.948Z,12.97
2022-12-01T03:44:57.698Z,13.07
2022-12-01T03:49:00.701Z,13.07
2022-12-01T03:53:11.285Z,13.47
2022-12-01T03:57:22.827Z,13.73
2022-12-01T04:01:27.933Z,13.73
2022-12-01T04:05:32.387Z,13.50
2022-12-01T04:09:35.346Z,13.45
2022-12-01T04:13:40.030Z,14.80
2022-12-01T04:17:44.588Z,13.50
2022-12-01T04:21:47.621Z,13.60
2022-12-01T04:25:50.625Z,14.43
2022-12-01T04:29:55.026Z,14.13
2022-12-01T04:33:58.788Z,13.27
2022-12-01T04:38:02.245Z,14.77
2022-12-01T04:42:06.012Z,13.60
2022-12-01T04:46:10.461Z,14.07
2022-12-01T04:50:13.563Z,13.10
2022-12-01T04:54:16.899Z,13.67
2022-12-01T04:58:20.101Z,14.90
2022-12-01T05:02:24.485Z,15.70
2022-12-01T05:06:29.692Z,15.07
2022-12-01T05:10:32.703Z,14.10
2022-12-01T05:14:35.767Z,15.03
2022-12-01T05:18:41.733Z,15.20
2022-12-01T05:23:04.903Z,13.60
2022-12-01T05:27:07.819Z,14.43
2022-12-01T05:31:10.837Z,14.97
2022-12-01T05:35:15.344Z,14.50
2022-12-01T05:39:18.397Z,13.83
2022-12-01T05:43:28.335Z,13.85
2022-12-01T05:47:32.138Z,13.33
2022-12-01T05:51:36.448Z,14.10
2022-12-01T05:55:39.497Z,14.40
2022-12-01T05:59:42.494Z,13.43
2022-12-01T06:03:45.415Z,14.23
2022-12-01T06:07:50.327Z,15.60
2022-12-01T06:11:53.290Z,14.40
2022-12-01T06:16:00.717Z,14.20
2022-12-01T06:20:03.658Z,14.00
2022-12-01T06:24:08.817Z,14.63
2022-12-01T06:28:11.713Z,13.80
2022-12-01T06:32:14.686Z,12.80
2022-12-01T06:36:17.642Z,14.33
2022-12-01T06:40:22.484Z,15.17
2022-12-01T06:44:25.433Z,14.13
2022-12-01T06:48:28.287Z,14.70
2022-12-01T06:52:31.175Z,14.43
2022-12-01T06:56:35.467Z,14.75
2022-12-01T07:00:38.503Z,14.67
2022-12-01T07:04:41.431Z,15.23
2022-12-01T07:08:45.110Z,14.03
2022-12-01T07:12:49.477Z,15.20
2022-12-01T07:16:52.569Z,14.53
2022-12-01T07:20:55.581Z,15.17
2022-12-01T07:24:58.501Z,14.57
2022-12-01T07:29:02.748Z,15.30
2022-12-01T07:33:05.764Z,14.20
2022-12-01T07:37:08.692Z,14.27
2022-12-01T07:41:13.285Z,15.10
2022-12-01T07:45:17.690Z,14.00
2022-12-01T07:49:20.848Z,13.70
2022-12-01T07:53:25.104Z,14.40
2022-12-01T07:57:27.980Z,14.23
2022-12-01T08:01:32.899Z,13.27
2022-12-01T08:05:36.051Z,12.10
2022-12-01T08:09:39.012Z,14.88
2022-12-01T08:13:43.360Z,14.40
2022-12-01T08:17:47.820Z,13.77
2022-12-01T08:21:50.701Z,12.77
2022-12-01T08:25:54.024Z,13.63
2022-12-01T08:29:57.390Z,14.93
2022-12-01T08:34:01.644Z,14.13
2022-12-01T08:38:05.296Z,13.25
2022-12-01T08:42:08.171Z,13.70
2022-12-01T08:46:11.825Z,14.40
2022-12-01T08:50:16.263Z,14.17
2022-12-01T08:54:19.436Z,13.30
2022-12-01T08:58:22.342Z,14.38
2022-12-01T09:02:25.631Z,13.35
2022-12-01T09:06:30.000Z,14.05
2022-12-01T09:10:32.891Z,13.95
2022-12-01T09:14:38.079Z,13.98
2022-12-01T09:18:41.642Z,14.23
2022-12-01T09:22:46.085Z,13.77
2022-12-01T09:26:49.000Z,13.68
2022-12-01T09:30:51.910Z,13.70
2022-12-01T09:34:54.815Z,13.15
2022-12-01T09:38:59.371Z,14.05
2022-12-01T09:43:05.614Z,13.48
2022-12-01T09:47:18.864Z,14.13
2022-12-01T09:51:24.254Z,12.02
2022-12-01T09:55:31.321Z,13.20
2022-12-01T09:59:39.623Z,13.73
2022-12-01T10:03:48.366Z,12.85
2022-12-01T10:07:56.455Z,12.63
2022-12-01T10:12:07.864Z,13.48
2022-12-01T10:16:13.560Z,13.88
2022-12-01T10:20:21.689Z,12.75
2022-12-01T10:24:34.987Z,12.77
2022-12-01T10:29:03.660Z,12.60
2022-12-01T10:33:20.945Z,14.27
2022-12-01T10:37:27.349Z,12.75
2022-12-01T10:41:34.874Z,12.43
2022-12-01T10:45:45.772Z,12.82
2022-12-01T10:49:49.707Z,13.18
2022-12-01T10:53:59.581Z,13.57
2022-12-01T10:58:13.195Z,13.77
2022-12-01T11:02:21.419Z,13.77
2022-12-01T11:06:27.803Z,12.70
2022-12-01T11:10:32.831Z,12.68
2022-12-01T11:14:44.888Z,13.75
2022-12-01T11:18:49.160Z,11.70
2022-12-01T11:22:52.323Z,13.05
2022-12-01T11:26:58.212Z,12.30
2022-12-01T11:31:04.143Z,13.13
2022-12-01T11:35:18.784Z,12.07
2022-12-01T11:39:26.802Z,11.75
2022-12-01T11:43:31.808Z,11.90
2022-12-01T11:47:34.928Z,11.40
2022-12-01T11:51:39.236Z,11.75
2022-12-01T11:55:42.117Z,11.32
2022-12-01T11:59:45.084Z,12.25
2022-12-01T12:03:57.473Z,10.95
2022-12-01T12:08:16.125Z,11.10
2022-12-01T12:12:30.899Z,11.10
2022-12-01T12:16:45.432Z,11.45
2022-12-01T12:21:03.443Z,12.50
2022-12-01T12:25:23.934Z,10.70
2022-12-01T12:29:41.721Z,11.27
2022-12-01T12:34:08.068Z,10.85
2022-12-01T12:38:23.805Z,10.80
2022-12-01T12:42:35.689Z,11.13
2022-12-01T12:46:48.861Z,11.52
2022-12-01T12:51:02.895Z,11.85
2022-12-01T12:55:15.369Z,11.45
2022-12-01T12:59:26.094Z,11.10
2022-12-01T13:03:39.894Z,11.20
2022-12-01T13:07:47.492Z,10.25
2022-12-01T13:11:54.533Z,10.55
2022-12-01T13:16:02.328Z,11.10
2022-12-01T13:20:06.675Z,11.23
2022-12-01T13:24:16.237Z,11.63
2022-12-01T13:28:24.391Z,11.63
2022-12-01T13:32:34.099Z,10.85
2022-12-01T13:36:52.223Z,10.70
2022-12-01T13:41:13.148Z,11.50
2022-12-01T13:45:20.272Z,10.30
2022-12-01T13:49:39.689Z,9.57
2022-12-01T13:53:58.239Z,11.25
2022-12-01T13:58:26.421Z,9.48
2022-12-01T14:02:31.741Z,10.30
2022-12-01T14:06:46.432Z,9.95
2022-12-01T14:10:55.551Z,10.13
2022-12-01T14:15:01.631Z,10.60
2022-12-01T14:19:04.555Z,10.70
2022-12-01T14:23:21.356Z,10.95
2022-12-01T14:27:38.384Z,10.30
2022-12-01T14:32:05.216Z,10.27
2022-12-01T14:36:11.195Z,10.15
2022-12-01T14:40:24.679Z,10.25
2022-12-01T14:44:32.406Z,10.65
2022-12-01T14:48:41.939Z,10.98
2022-12-01T14:52:48.193Z,11.13
2022-12-01T14:56:55.481Z,10.38
2022-12-01T15:01:04.931Z,10.77
2022-12-01T15:05:10.919Z,11.10
2022-12-01T15:13:49.154Z,10.98
2022-12-01T15:17:55.459Z,11.50
2022-12-01T15:21:58.818Z,11.35
2022-12-01T15:26:01.855Z,10.95
2022-12-01T15:30:07.922Z,11.85
2022-12-01T15:34:16.537Z,11.80
2022-12-01T15:38:23.006Z,11.50
2022-12-01T15:42:29.252Z,11.73
2022-12-01T15:46:35.370Z,12.75
2022-12-01T15:50:46.258Z,11.85
2022-12-01T15:54:51.172Z,11.48
2022-12-01T15:58:58.680Z,12.07
2022-12-01T16:03:03.506Z,12.13
2022-12-01T16:07:09.525Z,11.48
2022-12-01T16:11:16.158Z,12.63
2022-12-01T16:15:22.796Z,12.15
2022-12-01T16:19:30.184Z,12.63
2022-12-01T16:23:34.339Z,11.05
2022-12-01T16:27:52.126Z,11.50
2022-12-01T16:32:19.196Z,12.60
2022-12-01T16:36:26.587Z,12.18
2022-12-01T16:40:29.977Z,11.77
2022-12-01T16:44:32.907Z,11.93
2022-12-01T16:48:37.784Z,12.27
2022-12-01T16:52:44.976Z,11.45
2022-12-01T16:56:49.611Z,11.10
2022-12-01T17:00:53.469Z,12.13
2022-12-01T17:04:56.550Z,10.70
2022-12-01T17:09:00.884Z,12.00
2022-12-01T17:13:03.964Z,11.73
2022-12-01T17:17:06.920Z,11.57
2022-12-01T17:21:11.604Z,11.03
2022-12-01T17:25:16.125Z,11.63
2022-12-01T17:29:18.999Z,11.73
2022-12-01T17:33:21.963Z,11.03
2022-12-01T17:37:27.680Z,11.40
2022-12-01T17:41:35.711Z,11.83
2022-12-01T17:45:42.016Z,10.43
2022-12-01T17:49:45.276Z,12.10
2022-12-01T17:53:48.471Z,10.95
2022-12-01T17:57:52.833Z,11.75
2022-12-01T18:01:55.829Z,11.60
2022-12-01T18:05:59.472Z,11.17
2022-12-01T18:10:02.640Z,12.27
2022-12-01T18:14:07.049Z,12.17
2022-12-01T18:18:10.034Z,12.20
2022-12-01T18:22:13.087Z,12.43
2022-12-01T18:26:16.543Z,11.73
2022-12-01T18:30:21.134Z,10.90
2022-12-01T18:34:24.329Z,10.83
2022-12-01T18:38:28.225Z,12.17
2022-12-01T18:42:31.406Z,11.87
2022-12-01T18:46:36.084Z,12.30
2022-12-01T18:50:39.113Z,11.75
2022-12-01T18:54:42.196Z,12.43
2022-12-01T18:58:45.220Z,11.20
2022-12-01T19:02:49.559Z,11.45
2022-12-01T19:06:52.686Z,11.37
2022-12-01T19:11:00.415Z,12.20
2022-12-01T19:15:03.798Z,11.48
2022-12-01T19:19:08.255Z,12.00
2022-12-01T19:23:11.188Z,11.70
2022-12-01T19:27:14.211Z,11.23
2022-12-01T19:31:19.928Z,12.70
2022-12-01T19:35:24.366Z,11.15
2022-12-01T19:39:27.397Z,11.98
2022-12-01T19:43:30.510Z,11.23
2022-12-01T19:47:33.985Z,12.88
2022-12-01T19:51:39.873Z,12.43
2022-12-01T19:55:42.924Z,11.67
2022-12-01T19:59:46.085Z,11.90
2022-12-01T20:03:51.000Z,12.13
2022-12-01T20:07:55.473Z,11.40
2022-12-01T20:11:58.681Z,11.47
2022-12-01T20:16:06.619Z,12.83
2022-12-01T20:20:11.041Z,11.45
2022-12-01T20:24:18.543Z,12.10
2022-12-01T20:28:21.502Z,12.98
2022-12-01T20:32:24.697Z,11.53
2022-12-01T20:36:28.715Z,12.27
2022-12-01T20:40:33.091Z,12.13
2022-12-01T20:44:36.139Z,12.00
2022-12-01T20:48:39.223Z,11.63
2022-12-01T20:52:42.652Z,11.27
2022-12-01T20:56:47.093Z,11.37
2022-12-01T21:00:50.331Z,12.07
2022-12-01T21:04:57.710Z,10.10
2022-12-01T21:09:03.346Z,11.70
2022-12-01T21:13:38.811Z,11.20
2022-12-01T21:17:47.544Z,11.83
2022-12-01T21:21:51.642Z,12.43
2022-12-01T21:25:54.736Z,11.97
2022-12-01T21:29:59.112Z,11.53
2022-12-01T21:34:02.870Z,12.40
2022-12-01T21:38:11.960Z,11.90
2022-12-01T21:42:18.515Z,11.63
2022-12-01T21:46:23.198Z,12.07
2022-12-01T21:50:27.274Z,11.17
2022-12-01T21:54:30.878Z,12.40
2022-12-01T21:58:37.665Z,11.83
2022-12-01T22:02:53.304Z,11.90
2022-12-01T22:06:58.348Z,11.48
2022-12-01T22:11:04.877Z,12.13
2022-12-01T22:15:26.128Z,11.98
2022-12-01T22:19:33.598Z,12.13
2022-12-01T22:23:36.609Z,11.77
2022-12-01T22:27:40.677Z,12.73
2022-12-01T22:31:43.686Z,12.23
2022-12-01T22:35:49.363Z,11.80
2022-12-01T22:39:55.143Z,12.03
2022-12-01T22:44:00.597Z,11.70
2022-12-01T22:48:03.731Z,12.07
2022-12-01T22:52:17.106Z,12.10
2022-12-01T22:56:30.405Z,12.13
2022-12-01T23:00:34.168Z,11.60
2022-12-01T23:04:41.727Z,11.97
2022-12-01T23:08:46.738Z,12.23
2022-12-01T23:12:51.552Z,13.23
2022-12-01T23:17:05.427Z,11.97
2022-12-01T23:21:08.424Z,11.50
2022-12-01T23:25:15.167Z,12.83
2022-12-01T23:29:18.155Z,11.53
2022-12-01T23:33:23.392Z,11.83
2022-12-01T23:37:34.354Z,11.67
2022-12-01T23:41:41.296Z,12.13
2022-12-01T23:45:44.956Z,11.73
2022-12-01T23:49:50.333Z,12.10
2022-12-01T23:53:54.578Z,12.10
2022-12-01T23:58:01.853Z,12.20
